Time;durP1;ratioP1;P1;durP2;ratioP2;P2;SDS_P1;SDS_P2;PMS_P1;PMS_P2;Temp;Humidity;BMP_temperature;BMP_pressure;BME280_temperature;BME280_humidity;BME280_pressure;Samples;Min_cycle;Max_cycle;Signal;HPM_P1;HPM_P2
2022/10/27 00:02:03;;;;;;;12.27;8.90;;;;;;;9.69;100.00;101231.44;4916357;29;20056;-74
2022/10/27 00:04:29;;;;;;;15.60;8.73;;;;;;;9.60;100.00;101227.81;4922047;29;20492;-75
2022/10/27 00:06:54;;;;;;;14.40;8.87;;;;;;;9.67;100.00;101238.72;4930797;29;20039;-74
2022/10/27 00:09:20;;;;;;;14.03;8.23;;;;;;;9.65;100.00;101240.69;4937599;29;20048;-75
2022/10/27 00:11:45;;;;;;;12.77;7.87;;;;;;;9.45;100.00;101219.47;4937878;29;20012;-75
2022/10/27 00:14:11;;;;;;;10.60;8.23;;;;;;;9.60;100.00;101243.78;4937912;29;20032;-74
2022/10/27 00:16:36;;;;;;;11.23;7.87;;;;;;;9.56;100.00;101253.88;4924880;29;20349;-74
2022/10/27 00:19:02;;;;;;;10.93;7.83;;;;;;;9.48;100.00;101256.38;4917323;29;20120;-74
2022/10/27 00:21:28;;;;;;;9.47;6.87;;;;;;;9.41;100.00;101255.28;4917052;29;20176;-75
2022/10/27 00:23:53;;;;;;;12.83;7.67;;;;;;;9.35;100.00;101261.19;4916375;29;20177;-74
2022/10/27 00:26:20;;;;;;;11.37;7.93;;;;;;;9.37;100.00;101261.03;4916392;29;20060;-75
2022/10/27 00:28:46;;;;;;;9.70;7.17;;;;;;;9.32;100.00;101258.81;4899063;29;20024;-75
2022/10/27 00:31:20;;;;;;;9.07;7.90;;;;;;;9.30;100.00;101263.44;4918679;29;20107;-75
2022/10/27 00:33:47;;;;;;;10.40;7.63;;;;;;;9.25;100.00;101255.91;4929484;29;20036;-74
2022/10/27 00:36:19;;;;;;;9.70;7.13;;;;;;;9.25;100.00;101265.66;4941384;29;20064;-74
2022/10/27 00:38:45;;;;;;;8.70;6.97;;;;;;;9.22;100.00;101255.31;4941099;29;20040;-72
2022/10/27 00:41:26;;;;;;;10.60;7.07;;;;;;;9.20;100.00;101252.78;4924486;29;20032;-74
2022/10/27 00:43:51;;;;;;;9.10;7.13;;;;;;;9.22;100.00;101255.31;4925704;29;20024;-75
2022/10/27 00:46:36;;;;;;;12.10;6.97;;;;;;;9.25;100.00;101257.69;4922622;29;20028;-75
2022/10/27 00:49:07;;;;;;;10.80;7.50;;;;;;;9.26;100.00;101262.03;4919649;29;20028;-75
2022/10/27 00:51:33;;;;;;;8.90;6.57;;;;;;;9.27;100.00;101266.38;4919059;29;20039;-74
2022/10/27 00:54:00;;;;;;;10.80;7.50;;;;;;;9.27;100.00;101261.91;4918827;29;20035;-72
2022/10/27 00:56:25;;;;;;;8.83;6.70;;;;;;;9.27;100.00;101263.72;4918970;29;20520;-75
2022/10/27 00:58:51;;;;;;;10.07;7.23;;;;;;;9.19;100.00;101260.91;4919273;29;20052;-74
2022/10/27 01:01:17;;;;;;;8.60;6.53;;;;;;;9.23;100.00;101267.63;4919107;29;20408;-75
2022/10/27 01:03:45;;;;;;;10.07;7.33;;;;;;;9.26;100.00;101273.50;4918966;29;20507;-74
2022/10/27 01:06:11;;;;;;;10.63;6.83;;;;;;;9.24;100.00;101275.44;4918696;29;20038;-75
2022/10/27 01:08:39;;;;;;;8.63;6.77;;;;;;;9.19;100.00;101274.19;4919079;29;20268;-73
2022/10/27 01:11:05;;;;;;;9.80;6.57;;;;;;;9.13;100.00;101275.59;4920742;29;20067;-74
2022/10/27 01:13:31;;;;;;;9.33;6.70;;;;;;;9.13;100.00;101266.78;4919902;29;20083;-74
2022/10/27 01:16:36;;;;;;;12.27;7.83;;;;;;;9.21;100.00;101280.22;4918798;29;20404;-75
2022/10/27 01:19:27;;;;;;;8.63;5.80;;;;;;;9.20;100.00;101281.19;4918877;29;20404;-75
2022/10/27 01:22:09;;;;;;;12.53;8.00;;;;;;;9.20;100.00;101278.53;4918866;29;20094;-74
2022/10/27 01:24:52;;;;;;;9.50;7.13;;;;;;;9.19;100.00;101271.53;4918812;29;20036;-74
2022/10/27 01:27:36;;;;;;;10.00;7.10;;;;;;;9.26;100.00;101272.69;4918879;29;20376;-74
2022/10/27 01:30:04;;;;;;;12.60;6.77;;;;;;;9.22;100.00;101280.06;4918928;29;20032;-76
2022/10/27 01:32:57;;;;;;;10.43;6.95;;;;;;;9.24;100.00;101286.06;4918807;29;20039;-75
2022/10/27 01:35:39;;;;;;;9.97;6.63;;;;;;;9.14;100.00;101268.47;4918187;29;20056;-75
2022/10/27 01:38:32;;;;;;;9.83;7.27;;;;;;;9.26;100.00;101278.84;4918226;29;20051;-75
2022/10/27 01:41:11;;;;;;;8.47;6.77;;;;;;;9.25;100.00;101274.50;4915871;29;20084;-76
2022/10/27 01:43:37;;;;;;;9.65;6.47;;;;;;;9.27;100.00;101279.66;4917889;29;20127;-74
2022/10/27 01:46:07;;;;;;;9.47;6.77;;;;;;;9.24;100.00;101274.59;4901012;29;20111;-75
2022/10/27 01:48:35;;;;;;;10.37;7.03;;;;;;;9.30;100.00;101274.91;4917927;29;20331;-76
2022/10/27 01:51:01;;;;;;;11.27;7.47;;;;;;;9.20;100.00;101257.28;4918047;29;20028;-74
2022/10/27 01:53:30;;;;;;;10.43;7.70;;;;;;;9.32;100.00;101277.41;4918180;29;20387;-75
2022/10/27 01:55:55;;;;;;;10.67;6.63;;;;;;;9.31;100.00;101281.06;4918299;29;20042;-75
2022/10/27 01:58:58;;;;;;;10.43;7.17;;;;;;;9.27;100.00;101269.03;4918063;29;20024;-75
2022/10/27 02:01:47;;;;;;;10.20;6.97;;;;;;;9.37;100.00;101283.16;4917776;29;20034;-76
2022/10/27 02:04:19;;;;;;;9.60;6.57;;;;;;;9.38;100.00;101286.63;4918258;29;20051;-75
2022/10/27 02:07:28;;;;;;;9.20;6.07;;;;;;;9.41;100.00;101289.00;4917710;29;20040;-74
2022/10/27 02:09:59;;;;;;;8.73;6.27;;;;;;;9.37;100.00;101284.97;4917464;29;20063;-75
2022/10/27 02:12:30;;;;;;;9.30;6.03;;;;;;;9.40;100.00;101290.84;4918288;29;20099;-74
2022/10/27 02:14:59;;;;;;;9.37;6.77;;;;;;;9.25;100.00;101273.63;4917934;29;20694;-75
2022/10/27 02:17:32;;;;;;;8.23;5.70;;;;;;;9.38;100.00;101290.13;4917803;29;20539;-75
2022/10/27 02:19:59;;;;;;;10.50;6.57;;;;;;;9.38;100.00;101292.78;4917808;29;20028;-73
2022/10/27 02:22:28;;;;;;;8.80;5.57;;;;;;;9.36;100.00;101289.44;4917483;29;20507;-78
2022/10/27 02:24:53;;;;;;;;;;;;;;;9.41;100.00;101295.16;4917653;29;20028;-75
2022/10/27 02:27:40;;;;;;;8.77;5.93;;;;;;;9.38;100.00;101298.13;4900243;29;19970;-75
2022/10/27 02:30:07;;;;;;;6.73;5.10;;;;;;;9.34;100.00;101294.06;4917155;29;20480;-77
2022/10/27 02:32:33;;;;;;;7.90;5.10;;;;;;;9.34;100.00;101299.38;4917504;29;20103;-75
2022/10/27 02:34:59;;;;;;;11.10;5.87;;;;;;;9.33;100.00;101289.72;4900613;29;20088;-76
2022/10/27 02:37:34;;;;;;;9.13;6.07;;;;;;;9.31;100.00;101295.19;4900403;29;20036;-76
2022/10/27 02:40:00;;;;;;;12.00;6.40;;;;;;;9.32;100.00;101298.69;4917288;29;20066;-75
2022/10/27 02:42:25;;;;;;;10.27;5.67;;;;;;;9.32;100.00;101296.03;4917405;29;20063;-75
2022/10/27 02:44:51;;;;;;;8.40;5.63;;;;;;;9.34;100.00;101304.69;4917519;29;20020;-74
2022/10/27 02:47:17;;;;;;;8.43;5.30;;;;;;;9.28;100.00;101297.28;4918426;29;20024;-76
2022/10/27 02:49:43;;;;;;;8.27;5.07;;;;;;;9.14;100.00;101279.09;4918000;29;20039;-75
2022/10/27 02:52:09;;;;;;;6.50;5.20;;;;;;;9.28;100.00;101298.13;4919682;29;20028;-74
2022/10/27 02:54:35;;;;;;;9.53;5.63;;;;;;;9.34;100.00;101302.03;4919625;29;20024;-76
2022/10/27 02:57:01;;;;;;;6.90;4.90;;;;;;;9.37;100.00;101312.38;4916857;29;20024;-74
2022/10/27 02:59:26;;;;;;;6.13;5.33;;;;;;;9.30;100.00;101306.81;4916805;29;20028;-76
2022/10/27 03:01:52;;;;;;;7.57;5.30;;;;;;;9.34;100.00;101310.00;4916643;29;20055;-75
2022/10/27 03:04:18;;;;;;;6.30;5.27;;;;;;;9.39;100.00;101320.22;4917257;29;20040;-75
2022/10/27 03:06:43;;;;;;;8.50;5.70;;;;;;;9.39;100.00;101323.72;4920054;29;20032;-75
2022/10/27 03:09:09;;;;;;;6.60;5.13;;;;;;;9.39;100.00;101315.75;4887366;29;20477;-75
2022/10/27 03:11:37;;;;;;;5.63;5.03;;;;;;;9.39;100.00;101321.06;4918489;29;20480;-76
2022/10/27 03:14:02;;;;;;;7.93;5.53;;;;;;;9.34;100.00;101318.00;4919899;29;20032;-73
2022/10/27 03:16:28;;;;;;;7.97;5.60;;;;;;;9.41;100.00;101331.53;4922132;29;20036;-76
2022/10/27 03:18:53;;;;;;;8.30;5.33;;;;;;;9.38;100.00;101324.69;4921620;29;20028;-76
2022/10/27 03:21:19;;;;;;;8.43;5.23;;;;;;;9.42;100.00;101331.41;4920052;29;20032;-76
2022/10/27 03:23:44;;;;;;;7.40;5.00;;;;;;;9.43;100.00;101333.09;4918444;29;20052;-74
2022/10/27 03:26:10;;;;;;;9.87;4.83;;;;;;;9.43;100.00;101330.41;4917108;29;20031;-75
2022/10/27 03:28:36;;;;;;;9.80;5.80;;;;;;;9.40;100.00;101335.19;4916897;29;20115;-75
2022/10/27 03:31:02;;;;;;;14.47;5.83;;;;;;;9.35;100.00;101338.28;4916275;29;20476;-75
2022/10/27 03:33:28;;;;;;;8.33;4.97;;;;;;;9.34;100.00;101336.59;4916600;29;20040;-76
2022/10/27 03:35:54;;;;;;;7.90;4.50;;;;;;;9.38;100.00;101339.81;4916607;29;20043;-74
2022/10/27 03:38:19;;;;;;;8.23;5.07;;;;;;;9.38;100.00;101338.00;4916764;29;20384;-73
2022/10/27 03:40:45;;;;;;;8.90;5.37;;;;;;;9.39;100.00;101342.31;4916216;29;20043;-75
2022/10/27 03:43:10;;;;;;;9.40;5.30;;;;;;;9.39;100.00;101341.47;4916793;29;20040;-75
2022/10/27 03:45:36;;;;;;;9.30;5.37;;;;;;;9.36;100.00;101347.09;4916344;29;20028;-74
2022/10/27 03:48:09;;;;;;;7.87;4.73;;;;;;;9.34;100.00;101352.53;4916182;29;20114;-75
2022/10/27 03:50:34;;;;;;;12.30;5.30;;;;;;;9.32;100.00;101346.53;4916179;29;20034;-73
2022/10/27 03:53:02;;;;;;;13.17;6.00;;;;;;;9.33;100.00;101350.88;4915874;29;20036;-75
2022/10/27 03:55:28;;;;;;;8.67;5.07;;;;;;;9.35;100.00;101342.75;4916125;29;20099;-73
2022/10/27 03:57:54;;;;;;;17.90;6.10;;;;;;;9.39;100.00;101350.28;4916230;29;20429;-75
2022/10/27 04:00:20;;;;;;;12.50;5.93;;;;;;;9.43;100.00;101357.00;4916206;29;20036;-75
2022/10/27 04:02:46;;;;;;;10.07;4.97;;;;;;;9.23;100.00;101328.75;4915875;29;20080;-76
2022/10/27 04:05:12;;;;;;;13.87;5.73;;;;;;;9.38;100.00;101340.66;4917147;29;20047;-74
2022/10/27 04:10:32;;;;;;;13.37;5.90;;;;;;;9.44;100.00;101361.34;4898251;29;20056;-79
2022/10/27 04:12:59;;;;;;;11.37;5.27;;;;;;;9.38;100.00;101358.41;4920441;29;20559;-78
2022/10/27 04:15:26;;;;;;;18.47;4.97;;;;;;;9.36;100.00;101360.38;4903786;29;20036;-76
2022/10/27 04:17:57;;;;;;;10.10;5.13;;;;;;;9.33;100.00;101366.81;4905992;29;20028;-78
2022/10/27 04:20:23;;;;;;;13.13;5.53;;;;;;;9.13;100.00;101336.72;4909466;29;20028;-77
2022/10/27 04:22:48;;;;;;;16.63;5.57;;;;;;;9.35;100.00;101374.66;4921755;29;20031;-77
2022/10/27 04:25:14;;;;;;;13.33;6.40;;;;;;;9.38;100.00;101387.66;4921463;29;20090;-79
2022/10/27 04:27:40;;;;;;;22.47;5.77;;;;;;;9.35;100.00;101383.47;4924141;29;20060;-79
2022/10/27 04:30:05;;;;;;;17.80;5.33;;;;;;;9.30;100.00;101383.03;4908335;29;20032;-73
2022/10/27 04:32:31;;;;;;;19.13;5.23;;;;;;;9.32;100.00;101389.06;4923709;29;20047;-78
2022/10/27 04:34:56;;;;;;;20.23;5.07;;;;;;;9.26;100.00;101389.63;4922982;29;20020;-73
2022/10/27 04:37:22;;;;;;;21.40;5.93;;;;;;;9.19;100.00;101384.00;4922638;29;20034;-76
2022/10/27 04:39:47;;;;;;;17.53;5.00;;;;;;;9.23;100.00;101392.53;4922696;29;20036;-74
2022/10/27 04:42:13;;;;;;;12.33;3.77;;;;;;;9.11;100.00;101372.38;4921420;29;20092;-75
2022/10/27 04:44:38;;;;;;;17.83;5.07;;;;;;;9.16;100.00;101391.41;4921891;29;20028;-73
2022/10/27 04:47:04;;;;;;;21.73;5.00;;;;;;;9.10;100.00;101389.31;4923031;29;20043;-73
2022/10/27 04:49:29;;;;;;;29.40;5.53;;;;;;;9.09;100.00;101398.25;4928380;29;20036;-74
2022/10/27 04:51:55;;;;;;;23.23;5.73;;;;;;;9.08;100.00;101399.25;4927711;29;20024;-74
2022/10/27 04:54:21;;;;;;;19.70;5.33;;;;;;;9.03;100.00;101399.66;4907362;29;20088;-74
2022/10/27 04:56:46;;;;;;;19.70;5.23;;;;;;;9.02;100.00;101397.97;4920019;29;20432;-74
2022/10/27 04:59:12;;;;;;;23.77;6.10;;;;;;;9.03;100.00;101393.50;4919327;29;20028;-74
2022/10/27 05:01:39;;;;;;;25.00;6.57;;;;;;;9.05;100.00;101402.16;4901728;29;20416;-73
2022/10/27 05:04:06;;;;;;;33.93;7.57;;;;;;;8.98;100.00;101402.72;4919405;29;20158;-74
2022/10/27 05:06:31;;;;;;;30.70;6.20;;;;;;;9.02;100.00;101415.72;4919201;29;20046;-72
2022/10/27 05:08:57;;;;;;;21.03;6.27;;;;;;;8.98;100.00;101413.34;4919263;29;20111;-74
2022/10/27 05:11:22;;;;;;;19.27;6.97;;;;;;;8.98;100.00;101413.34;4919256;29;20024;-75
2022/10/27 05:13:49;;;;;;;21.07;6.77;;;;;;;9.02;100.00;101411.25;4901621;29;20028;-74
2022/10/27 05:16:15;;;;;;;24.70;7.13;;;;;;;9.03;100.00;101409.44;4901299;29;20035;-75
2022/10/27 05:18:40;;;;;;;25.17;8.37;;;;;;;9.05;100.00;101415.47;4918913;29;20036;-74
2022/10/27 05:21:06;;;;;;;29.07;7.53;;;;;;;9.05;100.00;101423.44;4919157;29;20126;-74
2022/10/27 05:23:31;;;;;;;29.37;7.40;;;;;;;9.04;100.00;101427.91;4919068;29;20028;-73
2022/10/27 05:25:57;;;;;;;32.43;8.90;;;;;;;8.92;100.00;101421.84;4901232;29;20032;-73
2022/10/27 05:28:23;;;;;;;35.17;7.70;;;;;;;8.94;100.00;101430.50;4918398;29;20068;-71
2022/10/27 05:30:48;;;;;;;18.67;8.20;;;;;;;8.82;100.00;101409.53;4917798;29;20076;-70
2022/10/27 05:33:14;;;;;;;26.10;8.17;;;;;;;8.95;100.00;101431.34;4918167;29;20043;-70
2022/10/27 05:35:40;;;;;;;20.17;7.60;;;;;;;8.96;100.00;101430.38;4921365;29;20048;-71
2022/10/27 05:38:06;;;;;;;24.97;8.60;;;;;;;8.99;100.00;101427.47;4929230;29;20119;-70
2022/10/27 05:40:35;;;;;;;28.27;9.40;;;;;;;9.04;100.00;101433.22;4921985;29;20428;-71
2022/10/27 05:43:02;;;;;;;21.80;9.05;;;;;;;9.09;100.00;101435.47;4919074;29;20059;-73
2022/10/27 05:45:28;;;;;;;20.87;9.00;;;;;;;9.11;100.00;101436.16;4917863;29;20130;-72
2022/10/27 05:47:58;;;;;;;21.73;8.90;;;;;;;9.15;100.00;101441.06;4917906;29;20472;-72
2022/10/27 05:50:25;;;;;;;23.00;9.60;;;;;;;9.18;100.00;101443.44;4910071;29;20558;-72
2022/10/27 05:52:50;;;;;;;21.53;10.30;;;;;;;9.17;100.00;101463.03;4899005;29;20540;-73
2022/10/27 05:55:16;;;;;;;21.00;10.17;;;;;;;9.13;100.00;101458.97;4899220;29;20119;-72
2022/10/27 05:57:41;;;;;;;17.50;8.80;;;;;;;9.06;100.00;101457.00;4899438;29;20127;-74
2022/10/27 06:00:08;;;;;;;18.67;8.43;;;;;;;9.06;100.00;101473.78;4898758;29;20039;-72
2022/10/27 06:02:33;;;;;;;19.33;9.13;;;;;;;9.02;100.00;101471.53;4898602;29;20075;-74
2022/10/27 06:05:00;;;;;;;23.97;8.80;;;;;;;9.04;100.00;101474.88;4898543;29;20127;-73
2022/10/27 06:07:25;;;;;;;18.43;9.40;;;;;;;9.05;100.00;101477.41;4882003;29;20040;-73
2022/10/27 06:09:51;;;;;;;19.60;9.80;;;;;;;9.08;100.00;101479.78;4899085;29;20092;-73
2022/10/27 06:12:16;;;;;;;17.07;9.57;;;;;;;9.11;100.00;101476.03;4898812;29;20032;-75
2022/10/27 06:14:44;;;;;;;17.93;9.33;;;;;;;9.15;100.00;101480.09;4882330;29;20481;-73
2022/10/27 06:17:09;;;;;;;20.00;8.67;;;;;;;9.14;100.00;101479.25;4898718;29;20044;-73
2022/10/27 06:19:35;;;;;;;14.07;7.87;;;;;;;9.15;100.00;101480.91;4898549;29;20040;-76
2022/10/27 06:22:00;;;;;;;13.90;7.17;;;;;;;9.16;100.00;101490.56;4882304;29;20036;-72
2022/10/27 06:24:26;;;;;;;15.43;7.53;;;;;;;9.22;100.00;101499.81;4898561;29;20043;-73
2022/10/27 06:26:51;;;;;;;19.50;8.37;;;;;;;9.18;100.00;101499.25;4898348;29;20029;-73
2022/10/27 06:29:17;;;;;;;13.50;7.00;;;;;;;9.21;100.00;101498.13;4898081;29;20024;-75
2022/10/27 06:31:42;;;;;;;17.97;7.83;;;;;;;9.15;100.00;101502.19;4898677;29;20119;-74
2022/10/27 06:34:08;;;;;;;13.93;6.23;;;;;;;9.16;100.00;101500.38;4898778;29;20028;-73
2022/10/27 06:36:33;;;;;;;15.50;7.03;;;;;;;9.09;100.00;101499.22;4898658;29;20168;-73
2022/10/27 06:38:59;;;;;;;14.40;7.23;;;;;;;9.09;100.00;101509.84;4898635;29;20369;-73
2022/10/27 06:41:25;;;;;;;14.57;7.73;;;;;;;8.94;100.00;101491.63;4898578;29;20031;-73
2022/10/27 06:43:51;;;;;;;14.83;7.30;;;;;;;9.09;100.00;101509.84;4898002;29;20029;-75
2022/10/27 06:46:16;;;;;;;16.63;7.80;;;;;;;9.13;100.00;101508.59;4897630;29;20028;-73
2022/10/27 06:48:42;;;;;;;13.67;6.40;;;;;;;9.19;100.00;101527.50;4898128;29;20037;-74
2022/10/27 06:51:07;;;;;;;11.13;6.60;;;;;;;9.23;100.00;101522.75;4898064;29;20032;-74
2022/10/27 06:53:33;;;;;;;9.97;5.93;;;;;;;9.28;100.00;101521.41;4897952;29;20031;-73
2022/10/27 06:55:58;;;;;;;10.43;6.70;;;;;;;9.38;100.00;101532.06;4897728;29;20036;-74
2022/10/27 06:58:24;;;;;;;15.10;6.40;;;;;;;9.38;100.00;101534.72;4898125;29;20037;-73
2022/10/27 07:00:49;;;;;;;9.10;6.40;;;;;;;9.48;100.00;101538.22;4897822;29;20033;-74
2022/10/27 07:03:16;;;;;;;12.93;8.10;;;;;;;9.57;100.00;101532.09;4897792;29;20091;-75
2022/10/27 07:05:41;;;;;;;10.17;6.60;;;;;;;9.69;100.00;101531.97;4897450;29;20036;-73
2022/10/27 07:08:07;;;;;;;12.40;6.67;;;;;;;9.63;100.00;101520.91;4897630;29;20032;-75
2022/10/27 07:10:32;;;;;;;10.33;6.57;;;;;;;9.79;100.00;101549.63;4880724;29;20084;-73
2022/10/27 07:13:00;;;;;;;12.23;7.27;;;;;;;9.65;100.00;101549.19;4897538;29;20067;-74
2022/10/27 07:15:31;;;;;;;13.02;7.05;;;;;;;9.59;100.00;101551.41;4897522;29;20481;-75
2022/10/27 07:18:05;;;;;;;14.67;8.40;;;;;;;9.48;100.00;101554.19;4897707;29;20088;-72
2022/10/27 07:20:33;;;;;;;16.10;8.47;;;;;;;9.45;100.00;101565.09;4897676;29;20064;-75
2022/10/27 07:23:00;;;;;;;14.52;8.57;;;;;;;9.36;100.00;101562.41;4897317;29;20092;-73
2022/10/27 07:25:27;;;;;;;13.30;8.27;;;;;;;9.34;100.00;101562.53;4897694;29;20128;-73
2022/10/27 07:27:54;;;;;;;13.67;8.63;;;;;;;9.39;100.00;101565.63;4897891;29;20029;-73
2022/10/27 07:30:21;;;;;;;13.50;7.60;;;;;;;9.44;100.00;101558.09;4897742;29;20123;-73
2022/10/27 07:32:47;;;;;;;11.27;7.63;;;;;;;9.56;100.00;101569.47;4897715;29;20524;-74
2022/10/27 07:35:14;;;;;;;10.80;6.87;;;;;;;9.60;100.00;101570.88;4897656;29;20322;-74
2022/10/27 07:37:46;;;;;;;12.33;8.10;;;;;;;9.68;100.00;101570.19;4897157;29;20039;-74
2022/10/27 07:40:15;;;;;;;8.33;6.17;;;;;;;9.72;100.00;101555.63;4898797;29;20036;-74
2022/10/27 07:42:48;;;;;;;13.27;6.03;;;;;;;9.78;100.00;101571.88;4901901;29;20028;-73
2022/10/27 07:45:15;;;;;;;8.27;5.90;;;;;;;9.75;100.00;101572.16;4901801;29;20091;-74
2022/10/27 07:47:54;;;;;;;8.40;6.33;;;;;;;9.82;100.00;101575.09;4901396;29;20487;-73
2022/10/27 07:50:23;;;;;;;7.53;5.50;;;;;;;9.83;100.00;101574.13;4900274;29;20081;-73
2022/10/27 07:52:50;;;;;;;6.80;4.78;;;;;;;9.88;100.00;101586.06;4901267;29;20088;-73
2022/10/27 07:55:19;;;;;;;7.33;5.33;;;;;;;9.92;100.00;101563.50;4901220;29;20035;-73
2022/10/27 07:57:45;;;;;;;8.43;6.00;;;;;;;10.09;100.00;101574.44;4901060;29;20040;-74
2022/10/27 08:00:16;;;;;;;11.53;6.90;;;;;;;10.09;100.00;101572.59;4900838;29;20037;-76
2022/10/27 08:02:42;;;;;;;9.77;6.60;;;;;;;10.08;100.00;101583.38;4900681;29;20056;-74
2022/10/27 08:05:09;;;;;;;10.43;6.77;;;;;;;10.04;100.00;101582.81;4901079;29;20033;-74
2022/10/27 08:07:35;;;;;;;10.23;7.67;;;;;;;10.07;100.00;101593.19;4900812;29;20385;-74
2022/10/27 08:10:01;;;;;;;10.93;7.93;;;;;;;10.07;100.00;101590.53;4900948;29;20035;-74
2022/10/27 08:12:28;;;;;;;10.98;8.07;;;;;;;10.11;100.00;101597.25;4900237;29;20342;-73
2022/10/27 08:14:54;;;;;;;9.80;7.57;;;;;;;10.09;100.00;101590.41;4883517;29;20042;-74
2022/10/27 08:17:20;;;;;;;10.80;7.03;;;;;;;10.09;100.00;101599.22;4901616;29;20055;-74
2022/10/27 08:19:45;;;;;;;10.60;6.70;;;;;;;10.13;100.00;101605.13;4902556;29;20024;-73
2022/10/27 08:22:11;;;;;;;10.13;7.20;;;;;;;10.05;100.00;101605.81;4900541;29;20048;-75
2022/10/27 08:24:36;;;;;;;9.03;6.13;;;;;;;10.05;100.00;101605.81;4900786;29;20032;-74
2022/10/27 08:27:02;;;;;;;11.43;7.63;;;;;;;10.03;100.00;101607.75;4900326;29;20028;-72
2022/10/27 08:29:28;;;;;;;9.63;5.60;;;;;;;9.99;100.00;101606.38;4900338;29;20039;-74
2022/10/27 08:31:53;;;;;;;6.57;5.63;;;;;;;9.93;100.00;101593.63;4883237;29;20033;-73
2022/10/27 08:34:19;;;;;;;7.17;6.40;;;;;;;9.84;100.00;101578.50;4900132;29;20025;-74
2022/10/27 08:36:44;;;;;;;8.97;6.10;;;;;;;10.09;100.00;101612.53;4900010;29;20036;-74
2022/10/27 08:39:11;;;;;;;7.70;5.57;;;;;;;10.04;100.00;101611.25;4900458;29;20028;-74
2022/10/27 08:41:48;;;;;;;6.87;5.60;;;;;;;10.10;100.00;101608.03;4900131;29;20032;-74
2022/10/27 08:44:14;;;;;;;8.23;5.40;;;;;;;10.19;100.00;101613.41;4899926;29;20028;-75
2022/10/27 08:46:48;;;;;;;7.37;5.00;;;;;;;10.12;100.00;101600.75;4899898;29;20099;-73
2022/10/27 08:49:30;;;;;;;8.07;5.40;;;;;;;10.24;100.00;101613.00;4900259;29;20029;-73
2022/10/27 08:52:19;;;;;;;6.13;5.20;;;;;;;10.24;100.00;101621.84;4899428;29;20529;-73
2022/10/27 08:54:51;;;;;;;6.90;4.70;;;;;;;10.24;100.00;101621.00;4861182;29;20036;-72
2022/10/27 08:57:30;;;;;;;5.30;4.77;;;;;;;10.28;100.00;101617.06;4899859;29;20091;-72
2022/10/27 08:59:57;;;;;;;5.97;4.70;;;;;;;10.28;100.00;101619.72;4883040;29;20036;-74
2022/10/27 09:02:52;;;;;;;9.07;5.83;;;;;;;10.34;100.00;101620.97;4899771;29;20477;-73
2022/10/27 09:05:35;;;;;;;5.03;4.43;;;;;;;10.30;100.00;101623.09;4896841;29;20051;-74
2022/10/27 09:08:38;;;;;;;5.60;4.67;;;;;;;10.25;100.00;101622.66;4900036;29;20033;-75
2022/10/27 09:11:04;;;;;;;5.40;4.27;;;;;;;10.13;100.00;101629.09;4900091;29;20095;-73
2022/10/27 09:14:06;;;;;;;6.13;4.87;;;;;;;10.17;100.00;101635.81;4899730;29;20461;-74
2022/10/27 09:16:39;;;;;;;12.63;5.80;;;;;;;10.13;100.00;101634.41;4899599;29;20028;-74
2022/10/27 09:19:13;;;;;;;7.97;4.60;;;;;;;10.05;100.00;101643.06;4883573;29;20041;-73
2022/10/27 09:21:42;;;;;;;5.87;4.70;;;;;;;10.00;100.00;101636.47;4899902;29;20039;-74
2022/10/27 09:24:11;;;;;;;;;;;;;;;10.03;100.00;101641.53;4900030;29;20168;-74
2022/10/27 09:26:36;;;;;;;7.33;4.73;;;;;;;10.02;100.00;101637.19;4899450;29;19918;-73
2022/10/27 09:29:13;;;;;;;6.50;4.50;;;;;;;10.03;100.00;101645.03;4899778;29;20021;-74
2022/10/27 09:32:03;;;;;;;6.10;5.37;;;;;;;10.11;100.00;101644.31;4899445;29;20033;-74
2022/10/27 09:34:42;;;;;;;7.13;4.70;;;;;;;10.09;100.00;101641.81;4882910;29;20366;-74
2022/10/27 09:37:16;;;;;;;7.32;5.38;;;;;;;10.15;100.00;101643.94;4882826;29;20039;-75
2022/10/27 09:39:49;;;;;;;6.93;4.90;;;;;;;10.13;100.00;101645.91;4899217;29;20491;-74
2022/10/27 09:42:15;;;;;;;7.13;5.40;;;;;;;10.13;100.00;101640.56;4899414;29;20036;-74
2022/10/27 09:45:02;;;;;;;6.10;4.70;;;;;;;10.29;100.00;101657.84;4899583;29;20092;-73
2022/10/27 09:47:37;;;;;;;7.40;4.32;;;;;;;10.39;100.00;101667.50;4899548;29;20047;-73
2022/10/27 09:50:06;;;;;;;7.70;4.33;;;;;;;10.46;100.00;101668.66;4899671;29;20071;-74
2022/10/27 09:52:41;;;;;;;8.37;5.47;;;;;;;10.47;100.00;101653.53;4899656;29;20132;-76
2022/10/27 09:55:07;;;;;;;8.30;5.20;;;;;;;10.41;100.00;101667.41;4899424;29;20036;-73
2022/10/27 09:57:36;;;;;;;5.00;3.90;;;;;;;10.39;100.00;101669.31;4899110;29;20028;-73
2022/10/27 10:00:14;;;;;;;4.97;3.33;;;;;;;10.36;100.00;101661.63;4898915;29;20115;-73
2022/10/27 10:02:53;;;;;;;5.13;3.53;;;;;;;10.36;100.00;101666.94;4897807;29;20053;-74
2022/10/27 10:05:23;;;;;;;6.23;3.33;;;;;;;10.39;100.00;101677.31;4898898;29;20475;-75
2022/10/27 10:08:11;;;;;;;3.13;2.70;;;;;;;10.40;100.00;101668.34;4899085;29;20031;-72
2022/10/27 10:10:38;;;;;;;3.63;2.73;;;;;;;10.32;100.00;101662.88;4868533;29;20428;-74
2022/10/27 10:13:05;;;;;;;3.87;2.60;;;;;;;10.32;100.00;101676.19;4885099;29;20273;-73
2022/10/27 10:15:39;;;;;;;3.80;2.83;;;;;;;10.23;100.00;101667.22;4899505;29;20029;-73
2022/10/27 10:18:26;;;;;;;2.97;2.50;;;;;;;10.23;100.00;101673.41;4898652;29;20036;-73
2022/10/27 10:21:17;;;;;;;3.93;2.67;;;;;;;10.11;100.00;101668.28;4899170;29;20046;-74
2022/10/27 10:23:52;;;;;;;5.83;2.93;;;;;;;10.12;100.00;101665.50;4898905;29;20033;-73
2022/10/27 10:26:22;;;;;;;3.17;2.23;;;;;;;10.12;100.00;101664.63;4898046;29;20381;-74
2022/10/27 10:28:53;;;;;;;2.80;2.30;;;;;;;10.09;100.00;101676.41;4897978;29;20040;-72
2022/10/27 10:31:27;;;;;;;3.33;2.47;;;;;;;10.15;100.00;101675.88;4898069;29;20449;-72
2022/10/27 10:34:00;;;;;;;4.27;2.47;;;;;;;10.16;100.00;101674.91;4881613;29;20051;-73
2022/10/27 10:36:37;;;;;;;2.97;2.13;;;;;;;10.18;100.00;101667.63;4898437;29;20028;-73
2022/10/27 10:39:24;;;;;;;4.53;2.20;;;;;;;10.16;100.00;101677.56;4898302;29;20028;-75
2022/10/27 10:42:08;;;;;;;3.87;2.23;;;;;;;10.13;100.00;101675.19;4898056;29;20457;-75
2022/10/27 10:44:34;;;;;;;6.07;2.97;;;;;;;10.13;100.00;101680.50;4897604;29;20048;-74
2022/10/27 10:47:00;;;;;;;3.40;2.03;;;;;;;10.20;100.00;101689.66;4881093;29;20069;-75
2022/10/27 10:49:29;;;;;;;5.83;2.50;;;;;;;10.20;100.00;101686.97;4898245;29;20032;-74
2022/10/27 10:52:01;;;;;;;5.43;2.63;;;;;;;10.09;100.00;101671.06;4898058;29;20045;-74
2022/10/27 10:54:31;;;;;;;7.07;2.37;;;;;;;10.02;100.00;101685.91;4896746;29;20032;-73
2022/10/27 10:56:56;;;;;;;3.40;2.33;;;;;;;10.03;100.00;101692.94;4897022;29;20115;-74
2022/10/27 10:59:26;;;;;;;2.50;2.03;;;;;;;10.08;100.00;101697.84;4898237;29;20385;-73
2022/10/27 11:01:57;;;;;;;4.23;2.13;;;;;;;9.99;100.00;101688.00;4897891;29;20028;-74
2022/10/27 11:04:47;;;;;;;2.67;2.03;;;;;;;9.88;100.00;101699.63;4897568;29;20056;-74
2022/10/27 11:07:29;;;;;;;2.47;1.70;;;;;;;9.83;100.00;101708.00;4897950;29;20032;-73
2022/10/27 11:10:12;;;;;;;4.57;2.03;;;;;;;9.85;100.00;101716.69;4898061;29;20028;-74
2022/10/27 11:12:43;;;;;;;2.20;2.00;;;;;;;9.77;100.00;101708.53;4897935;29;20714;-73
2022/10/27 11:15:30;;;;;;;5.67;2.57;;;;;;;9.64;100.00;101691.97;4904654;29;20497;-73
2022/10/27 11:18:15;;;;;;;5.23;2.57;;;;;;;9.69;100.00;101710.19;4889710;29;20036;-74
2022/10/27 11:20:42;;;;;;;2.27;1.83;;;;;;;9.66;100.00;101715.78;4906340;29;20036;-73
2022/10/27 11:23:20;;;;;;;2.20;1.70;;;;;;;9.68;100.00;101708.50;4905439;29;20532;-74
2022/10/27 11:25:46;;;;;;;3.10;2.33;;;;;;;9.68;100.00;101713.81;4903789;29;20123;-73
2022/10/27 11:28:20;;;;;;;4.20;1.93;;;;;;;9.68;100.00;101714.66;4907801;29;20417;-73
2022/10/27 11:30:59;;;;;;;5.63;2.97;;;;;;;9.68;100.00;101712.00;4898304;29;20035;-73
2022/10/27 11:33:40;;;;;;;3.50;1.93;;;;;;;9.69;100.00;101712.84;4899733;29;20080;-74
2022/10/27 11:36:18;;;;;;;3.97;1.80;;;;;;;9.56;100.00;101721.06;4899309;29;20037;-73